createdAt,value
2022-09-30T00:00:16.127Z,97460.47
2022-09-30T00:02:43.490Z,97482.47
2022-09-30T00:05:10.067Z,97474.09
2022-09-30T00:07:36.678Z,97220.78
2022-09-30T00:10:04.411Z,97509.06
2022-09-30T00:12:31.087Z,97375.38
2022-09-30T00:14:57.742Z,97406.66
2022-09-30T00:17:24.608Z,97525.78
2022-09-30T00:19:51.375Z,97502.41
2022-09-30T00:22:17.980Z,97372.91
2022-09-30T00:24:44.598Z,97238.88
2022-09-30T00:27:11.321Z,97498.47
2022-09-30T00:29:37.993Z,97212.19
2022-09-30T00:32:04.724Z,97462.00
2022-09-30T00:34:31.269Z,97466.56
2022-09-30T00:36:57.969Z,97476.72
2022-09-30T00:39:27.180Z,97534.63
2022-09-30T00:41:56.811Z,97535.44
2022-09-30T00:45:06.665Z,97537.28
2022-09-30T00:48:00.283Z,97485.84
2022-09-30T00:50:29.898Z,97534.47
2022-09-30T00:53:20.009Z,97472.81
2022-09-30T00:55:58.829Z,97538.00
2022-09-30T00:58:35.235Z,97443.38
2022-09-30T01:01:02.929Z,97472.47
2022-09-30T01:03:38.309Z,97474.94
2022-09-30T01:06:05.681Z,97471.22
2022-09-30T01:08:37.059Z,97549.94
2022-09-30T01:11:08.021Z,97514.78
2022-09-30T01:13:37.029Z,97508.31
2022-09-30T01:16:25.347Z,97558.53
2022-09-30T01:19:16.487Z,97490.28
2022-09-30T01:22:04.512Z,97559.59
2022-09-30T01:24:38.059Z,97550.84
2022-09-30T01:27:10.824Z,97549.47
2022-09-30T01:30:07.623Z,97501.91
2022-09-30T01:33:17.442Z,97497.16
2022-09-30T01:36:06.063Z,97538.06
2022-09-30T01:39:00.884Z,97533.88
2022-09-30T01:42:04.515Z,97458.00
2022-09-30T01:44:42.909Z,97497.66
2022-09-30T01:47:24.200Z,97541.44
2022-09-30T01:50:05.236Z,97532.13
2022-09-30T01:52:56.247Z,97517.50
2022-09-30T01:55:50.718Z,97494.97
2022-09-30T01:58:33.285Z,97555.69
2022-09-30T02:01:04.631Z,97537.97
2022-09-30T02:03:37.557Z,97338.59
2022-09-30T02:06:14.327Z,97487.28
2022-09-30T02:08:47.382Z,97548.75
2022-09-30T02:11:22.525Z,97555.72
2022-09-30T02:13:56.276Z,97387.50
2022-09-30T02:16:28.973Z,97546.84
2022-09-30T02:19:02.003Z,97495.84
2022-09-30T02:21:37.420Z,97561.56
2022-09-30T02:24:10.625Z,97486.28
2022-09-30T02:26:41.570Z,97577.41
2022-09-30T02:29:23.168Z,97522.97
2022-09-30T02:31:56.433Z,97506.34
2022-09-30T02:34:41.405Z,97425.91
2022-09-30T02:37:15.557Z,97500.06
2022-09-30T02:39:56.653Z,97436.13
2022-09-30T02:42:27.284Z,97497.28
2022-09-30T02:45:00.508Z,97579.28
2022-09-30T02:47:48.404Z,97588.47
2022-09-30T02:50:25.836Z,97532.78
2022-09-30T02:53:13.807Z,97584.34
2022-09-30T02:55:55.737Z,97586.72
2022-09-30T02:58:24.076Z,97591.47
2022-09-30T03:00:50.845Z,97488.25
2022-09-30T03:03:22.904Z,97595.69
2022-09-30T03:05:50.595Z,97591.94
2022-09-30T03:08:17.669Z,97585.34
2022-09-30T03:10:46.997Z,97551.22
2022-09-30T03:13:41.156Z,97435.53
2022-09-30T03:16:17.137Z,97588.53
2022-09-30T03:19:02.407Z,97591.03
2022-09-30T03:22:07.693Z,97597.84
2022-09-30T03:24:58.595Z,97600.75
2022-09-30T03:27:45.153Z,97600.63
2022-09-30T03:30:18.499Z,97560.34
2022-09-30T03:33:10.935Z,97603.94
2022-09-30T03:35:40.523Z,97610.25
2022-09-30T03:38:22.413Z,97604.50
2022-09-30T03:41:03.020Z,97601.00
2022-09-30T03:43:37.173Z,97547.34
2022-09-30T03:46:27.151Z,97609.56
2022-09-30T03:48:58.114Z,97601.06
2022-09-30T03:51:25.051Z,97623.16
2022-09-30T03:53:51.819Z,97612.66
2022-09-30T03:56:28.728Z,97586.97
2022-09-30T03:58:56.375Z,97634.03
2022-09-30T04:01:23.512Z,97573.53
2022-09-30T04:03:51.923Z,97637.81
2022-09-30T04:06:23.240Z,97641.47
2022-09-30T04:08:50.238Z,97639.19
2022-09-30T04:11:17.633Z,97634.38
2022-09-30T04:13:44.239Z,97531.63
2022-09-30T04:16:10.901Z,97600.16
2022-09-30T04:18:38.841Z,97311.88
2022-09-30T04:21:10.237Z,97646.41
2022-09-30T04:23:38.405Z,97645.56
2022-09-30T04:26:07.455Z,97647.34
2022-09-30T04:28:34.818Z,97568.19
2022-09-30T04:31:03.609Z,97594.81
2022-09-30T04:33:30.653Z,97588.47
2022-09-30T04:35:58.751Z,97614.91
2022-09-30T04:38:25.868Z,97496.09
2022-09-30T04:40:53.956Z,97653.94
2022-09-30T04:43:21.336Z,97469.22
2022-09-30T04:45:48.389Z,97611.97
2022-09-30T04:48:16.286Z,97627.34
2022-09-30T04:50:43.183Z,97582.81
2022-09-30T04:53:12.992Z,97666.44
2022-09-30T04:55:39.597Z,97526.94
2022-09-30T04:58:06.260Z,97548.28
2022-09-30T05:00:32.915Z,97646.97
2022-09-30T05:02:59.736Z,97656.25
2022-09-30T05:05:26.288Z,97502.09
2022-09-30T05:07:52.977Z,97620.19
2022-09-30T05:10:19.649Z,97413.91
2022-09-30T05:12:46.288Z,97380.25
2022-09-30T05:15:12.882Z,97677.00
2022-09-30T05:17:41.664Z,97617.88
2022-09-30T05:20:08.774Z,97673.34
2022-09-30T05:22:35.389Z,97688.91
2022-09-30T05:25:02.008Z,97538.16
2022-09-30T05:27:28.688Z,97633.84
2022-09-30T05:29:55.270Z,97642.19
2022-09-30T05:32:22.046Z,97637.94
2022-09-30T05:34:48.616Z,97698.78
2022-09-30T05:37:15.413Z,97602.78
2022-09-30T05:39:42.168Z,97369.88
2022-09-30T05:42:13.263Z,97459.75
2022-09-30T05:44:40.593Z,97561.38
2022-09-30T05:47:07.676Z,97692.00
2022-09-30T05:49:34.344Z,97648.72
2022-09-30T05:52:01.837Z,97704.72
2022-09-30T05:54:28.501Z,97608.44
2022-09-30T05:56:55.048Z,97692.28
2022-09-30T05:59:21.705Z,97649.97
2022-09-30T06:04:39.332Z,97627.69
2022-09-30T06:07:10.392Z,97739.44
2022-09-30T06:09:37.850Z,97724.28
2022-09-30T06:12:04.481Z,97686.00
2022-09-30T06:14:31.116Z,97737.03
2022-09-30T06:16:57.665Z,97430.03
2022-09-30T06:19:24.576Z,97752.03
2022-09-30T06:21:51.382Z,97661.97
2022-09-30T06:24:18.000Z,97715.34
2022-09-30T06:26:44.630Z,97721.84
2022-09-30T06:29:11.286Z,97678.09
2022-09-30T06:31:37.926Z,97798.75
2022-09-30T06:34:04.753Z,97628.69
2022-09-30T06:36:31.449Z,97686.63
2022-09-30T06:38:58.128Z,97674.88
2022-09-30T06:41:24.961Z,97671.41
2022-09-30T06:43:53.144Z,97735.38
2022-09-30T06:46:36.069Z,97685.13
2022-09-30T06:49:12.515Z,97681.53
2022-09-30T06:51:40.738Z,97805.59
2022-09-30T06:54:07.352Z,97813.41
2022-09-30T06:56:33.974Z,97763.66
2022-09-30T06:59:00.653Z,97747.16
2022-09-30T07:01:27.472Z,97716.78
2022-09-30T07:03:54.773Z,97785.69
2022-09-30T07:06:21.524Z,97791.09
2022-09-30T07:08:48.067Z,97741.59
2022-09-30T07:11:14.709Z,97739.31
2022-09-30T07:13:42.714Z,97793.19
2022-09-30T07:16:10.291Z,97749.09
2022-09-30T07:18:36.886Z,97645.16
2022-09-30T07:21:04.278Z,97847.72
2022-09-30T07:23:31.325Z,97832.16
2022-09-30T07:26:00.452Z,97763.25
2022-09-30T07:28:29.473Z,97673.03
2022-09-30T07:31:13.523Z,97773.91
2022-09-30T07:33:44.377Z,97751.72
2022-09-30T07:36:13.237Z,97768.69
2022-09-30T07:38:42.100Z,97770.66
2022-09-30T07:41:10.980Z,97837.94
2022-09-30T07:43:38.858Z,97839.03
2022-09-30T07:46:05.690Z,97839.81
2022-09-30T07:48:33.333Z,97849.13
2022-09-30T07:51:01.545Z,97783.41
2022-09-30T07:53:29.853Z,97804.53
2022-09-30T07:55:56.805Z,97835.69
2022-09-30T07:58:23.445Z,97806.63
2022-09-30T08:00:51.128Z,97757.75
2022-09-30T08:03:18.205Z,97792.22
2022-09-30T08:05:45.975Z,97867.09
2022-09-30T08:08:13.382Z,97794.66
2022-09-30T08:10:40.728Z,97747.03
2022-09-30T08:13:08.300Z,97863.50
2022-09-30T08:15:35.657Z,97863.50
2022-09-30T08:18:02.715Z,97816.84
2022-09-30T08:20:29.643Z,97702.81
2022-09-30T08:22:56.551Z,97750.16
2022-09-30T08:25:24.252Z,97806.25
2022-09-30T08:27:51.178Z,97866.47
2022-09-30T08:30:17.873Z,97746.28
2022-09-30T08:32:44.613Z,97680.44
2022-09-30T08:35:11.208Z,97792.59
2022-09-30T08:37:37.852Z,97829.31
2022-09-30T08:40:04.841Z,97802.72
2022-09-30T08:42:39.588Z,97857.63
2022-09-30T08:45:31.332Z,97870.00
2022-09-30T08:48:06.281Z,97737.13
2022-09-30T08:50:54.735Z,97816.03
2022-09-30T08:53:36.223Z,97756.31
2022-09-30T08:56:05.720Z,97820.44
2022-09-30T08:58:42.832Z,97800.34
2022-09-30T09:01:36.225Z,97874.44
2022-09-30T09:04:05.337Z,97737.31
2022-09-30T09:06:53.616Z,97868.16
2022-09-30T09:09:26.283Z,97856.63
2022-09-30T09:12:29.438Z,97862.63
2022-09-30T09:15:21.084Z,97866.78
2022-09-30T09:18:23.221Z,97797.38
2022-09-30T09:21:03.490Z,97798.28
2022-09-30T09:23:33.100Z,97873.88
2022-09-30T09:26:00.023Z,97870.75
2022-09-30T09:28:53.749Z,97842.31
2022-09-30T09:31:21.463Z,97771.22
2022-09-30T09:33:48.125Z,97781.13
2022-09-30T09:36:41.103Z,97864.78
2022-09-30T09:39:24.299Z,97852.63
2022-09-30T09:41:56.963Z,97853.00
2022-09-30T09:44:36.199Z,97823.38
2022-09-30T09:47:13.398Z,97852.41
2022-09-30T09:49:43.404Z,97706.63
2022-09-30T09:52:12.999Z,97846.72
2022-09-30T09:54:45.310Z,97853.75
2022-09-30T09:57:17.737Z,97848.91
2022-09-30T10:00:12.044Z,97831.44
2022-09-30T10:02:38.696Z,97780.63
2022-09-30T10:05:05.448Z,97820.97
2022-09-30T10:07:34.054Z,97777.06
2022-09-30T10:10:21.084Z,97837.69
2022-09-30T10:12:50.033Z,97751.34
2022-09-30T10:15:25.496Z,97808.25
2022-09-30T10:17:58.056Z,97831.44
2022-09-30T10:20:36.648Z,97824.47
2022-09-30T10:23:11.011Z,97825.56
2022-09-30T10:25:37.713Z,97793.06
2022-09-30T10:28:22.061Z,97791.31
2022-09-30T10:30:55.132Z,97797.75
2022-09-30T10:33:26.803Z,97742.38
2022-09-30T10:36:01.651Z,97828.66
2022-09-30T10:38:29.503Z,97833.75
2022-09-30T10:40:56.889Z,97745.34
2022-09-30T10:43:40.885Z,97687.78
2022-09-30T10:48:57.631Z,97795.13
2022-09-30T10:51:28.042Z,97833.63
2022-09-30T10:53:56.034Z,97773.31
2022-09-30T10:56:41.763Z,97823.81
2022-09-30T10:59:42.467Z,97826.56
2022-09-30T11:02:31.355Z,97831.19
2022-09-30T11:05:16.799Z,97825.41
2022-09-30T11:07:51.941Z,97801.00
2022-09-30T11:10:27.467Z,97802.53
2022-09-30T11:13:23.158Z,97796.09
2022-09-30T11:16:11.567Z,97816.53
2022-09-30T11:18:48.376Z,97824.16
2022-09-30T11:21:24.743Z,97732.63
2022-09-30T11:24:02.494Z,97761.03
2022-09-30T11:26:50.679Z,97778.72
2022-09-30T11:29:56.725Z,97821.50
2022-09-30T11:32:32.521Z,97818.97
2022-09-30T11:35:18.896Z,97749.81
2022-09-30T11:37:48.666Z,97818.59
2022-09-30T11:40:21.701Z,97817.78
2022-09-30T11:43:08.228Z,97814.19
2022-09-30T11:46:36.837Z,97809.00
2022-09-30T11:50:02.023Z,97402.13
2022-09-30T11:53:10.219Z,97819.19
2022-09-30T11:56:26.229Z,97749.97
2022-09-30T11:58:58.645Z,97749.59
2022-09-30T12:01:30.630Z,97816.84
2022-09-30T12:04:03.069Z,97785.16
2022-09-30T12:06:35.445Z,97750.06
2022-09-30T12:09:35.083Z,97809.38
2022-09-30T12:12:16.248Z,97817.13
2022-09-30T12:14:50.964Z,97778.97
2022-09-30T12:17:26.545Z,97812.13
2022-09-30T12:19:56.485Z,97787.34
2022-09-30T12:22:38.919Z,97758.31
2022-09-30T12:25:28.794Z,97757.34
2022-09-30T12:28:13.887Z,97758.50
2022-09-30T12:30:41.247Z,97796.88
2022-09-30T12:33:25.693Z,97759.75
2022-09-30T12:36:21.318Z,97816.56
2022-09-30T12:39:07.330Z,97744.69
2022-09-30T12:41:53.605Z,97815.81
2022-09-30T12:44:51.386Z,97816.63
2022-09-30T12:47:18.277Z,97817.28
2022-09-30T12:49:46.193Z,97794.22
2022-09-30T12:52:17.550Z,97796.00
2022-09-30T12:54:58.606Z,97800.66
2022-09-30T12:57:33.203Z,97775.09
2022-09-30T13:00:29.209Z,97815.81
2022-09-30T13:03:03.231Z,97759.28
2022-09-30T13:05:30.146Z,97815.00
2022-09-30T13:08:05.969Z,97814.75
2022-09-30T13:10:57.225Z,97802.66
2022-09-30T13:13:27.298Z,97762.47
2022-09-30T13:15:55.536Z,97815.28
2022-09-30T13:18:22.220Z,97812.13
2022-09-30T13:21:07.446Z,97816.81
2022-09-30T13:23:51.426Z,97794.63
2022-09-30T13:26:24.301Z,97808.94
2022-09-30T13:28:53.083Z,97767.53
2022-09-30T13:31:24.438Z,97818.97
2022-09-30T13:33:57.387Z,97815.63
2022-09-30T13:36:31.789Z,97807.31
2022-09-30T13:39:17.449Z,97812.81
2022-09-30T13:41:48.242Z,97799.38
2022-09-30T13:44:24.379Z,97630.69
2022-09-30T13:46:57.080Z,97808.94
2022-09-30T13:49:41.797Z,97812.38
2022-09-30T13:52:20.961Z,97765.66
2022-09-30T13:54:50.491Z,97811.19
2022-09-30T13:57:27.478Z,97815.75
2022-09-30T14:00:05.892Z,97809.69
2022-09-30T14:02:58.399Z,97761.13
2022-09-30T14:05:48.593Z,97781.25
2022-09-30T14:08:40.620Z,97815.81
2022-09-30T14:11:19.424Z,97809.59
2022-09-30T14:14:01.253Z,97776.63
2022-09-30T14:16:40.251Z,97800.31
2022-09-30T14:19:20.909Z,97780.81
2022-09-30T14:21:54.370Z,97761.19
2022-09-30T14:24:27.463Z,97733.41
2022-09-30T14:27:39.348Z,97798.59
2022-09-30T14:30:13.671Z,97741.28
2022-09-30T14:32:47.022Z,97731.41
2022-09-30T14:35:21.239Z,97701.53
2022-09-30T14:37:54.867Z,97667.94
2022-09-30T14:40:28.167Z,97743.25
2022-09-30T14:45:48.649Z,97746.59
2022-09-30T14:48:48.047Z,97791.56
2022-09-30T14:51:20.235Z,97790.31
2022-09-30T14:54:01.183Z,97736.44
2022-09-30T14:56:29.353Z,97788.06
2022-09-30T14:58:57.769Z,97691.22
2022-09-30T15:01:30.372Z,97784.19
2022-09-30T15:04:01.982Z,97775.25
2022-09-30T15:06:34.753Z,97776.53
2022-09-30T15:09:15.726Z,97749.69
2022-09-30T15:11:44.124Z,97624.63
2022-09-30T15:14:18.025Z,97799.16
2022-09-30T15:16:53.270Z,97750.06
2022-09-30T15:19:21.959Z,97794.06
2022-09-30T15:21:51.445Z,97757.09
2022-09-30T15:24:21.614Z,97747.34
2022-09-30T15:26:49.576Z,97697.84
2022-09-30T15:29:18.001Z,97774.03
2022-09-30T15:31:48.163Z,97804.78
2022-09-30T15:34:20.570Z,97767.34
2022-09-30T15:37:04.752Z,97759.81
2022-09-30T15:39:37.388Z,97769.06
2022-09-30T15:42:04.253Z,97752.97
2022-09-30T15:44:45.198Z,97805.94
2022-09-30T15:47:12.198Z,97746.72
2022-09-30T15:49:39.364Z,97802.81
2022-09-30T15:52:38.352Z,97803.19
2022-09-30T15:55:43.630Z,97810.09
2022-09-30T15:58:40.063Z,97800.63
2022-09-30T16:01:22.719Z,97773.72
2022-09-30T16:04:10.739Z,97807.56
2022-09-30T16:06:45.658Z,97707.75
2022-09-30T16:09:18.862Z,97809.38
2022-09-30T16:12:00.992Z,97806.47
2022-09-30T16:14:30.104Z,97731.91
2022-09-30T16:17:00.038Z,97798.13
2022-09-30T16:19:29.241Z,97801.56
2022-09-30T16:22:00.138Z,97750.50
2022-09-30T16:24:27.372Z,97808.53
2022-09-30T16:26:55.693Z,97774.09
2022-09-30T16:29:24.322Z,97811.88
2022-09-30T16:31:53.590Z,97736.25
2022-09-30T16:34:24.649Z,97745.34
2022-09-30T16:36:53.803Z,97717.91
2022-09-30T16:39:20.789Z,97786.19
2022-09-30T16:41:47.660Z,97688.41
2022-09-30T16:44:16.446Z,97666.34
2022-09-30T16:46:50.896Z,97754.78
2022-09-30T16:49:20.606Z,97790.16
2022-09-30T16:51:47.481Z,97607.34
2022-09-30T16:54:14.140Z,97771.53
2022-09-30T16:56:40.836Z,97762.78
2022-09-30T16:59:14.050Z,97789.84
2022-09-30T17:01:50.658Z,97771.00
2022-09-30T17:04:17.616Z,97802.03
2022-09-30T17:06:44.412Z,97728.78
2022-09-30T17:09:12.179Z,97743.00
2022-09-30T17:11:38.908Z,97699.84
2022-09-30T17:14:06.012Z,97745.84
2022-09-30T17:16:33.421Z,97792.59
2022-09-30T17:19:04.973Z,97778.31
2022-09-30T17:21:36.008Z,97719.97
2022-09-30T17:24:04.115Z,97756.94
2022-09-30T17:26:31.095Z,97762.03
2022-09-30T17:29:14.570Z,97794.56
2022-09-30T17:31:47.757Z,97776.63
2022-09-30T17:34:14.393Z,97736.59
2022-09-30T17:36:41.088Z,97724.09
2022-09-30T17:39:08.954Z,97749.00
2022-09-30T17:41:43.198Z,97768.72
2022-09-30T17:44:10.148Z,97783.56
2022-09-30T17:46:43.694Z,97786.84
2022-09-30T17:49:12.475Z,97832.81
2022-09-30T17:51:39.612Z,97799.34
2022-09-30T17:54:06.578Z,97735.06
2022-09-30T17:56:34.264Z,97823.00
2022-09-30T17:59:02.490Z,97831.53
2022-09-30T18:01:30.644Z,97761.16
2022-09-30T18:03:59.097Z,97669.25
2022-09-30T18:06:26.114Z,97751.91
2022-09-30T18:08:52.970Z,97767.28
2022-09-30T18:11:21.517Z,97797.34
2022-09-30T18:13:55.618Z,97753.56
2022-09-30T18:16:22.409Z,97792.56
2022-09-30T18:18:49.345Z,97782.03
2022-09-30T18:21:16.508Z,97740.44
2022-09-30T18:23:43.065Z,97805.63
2022-09-30T18:26:10.284Z,97495.50
2022-09-30T18:28:37.087Z,97796.31
2022-09-30T18:31:07.497Z,97826.78
2022-09-30T18:33:34.182Z,97858.09
2022-09-30T18:36:01.530Z,97830.91
2022-09-30T18:38:28.120Z,97797.78
2022-09-30T18:40:56.035Z,97826.25
2022-09-30T18:43:22.695Z,97821.16
2022-09-30T18:45:57.355Z,97859.50
2022-09-30T18:48:25.400Z,97833.31
2022-09-30T18:50:52.347Z,97831.47
2022-09-30T18:53:21.629Z,97818.50
2022-09-30T18:55:48.848Z,97867.44
2022-09-30T18:58:20.446Z,97666.78
2022-09-30T19:00:48.831Z,97814.63
2022-09-30T19:03:15.705Z,97842.81
2022-09-30T19:05:42.822Z,97801.13
2022-09-30T19:08:09.492Z,97855.19
2022-09-30T19:10:41.617Z,97733.63
2022-09-30T19:13:09.247Z,97841.06
2022-09-30T19:15:38.738Z,97869.28
2022-09-30T19:18:07.037Z,97863.97
2022-09-30T19:20:37.546Z,97799.03
2022-09-30T19:23:05.494Z,97857.41
2022-09-30T19:25:35.163Z,97783.59
2022-09-30T19:28:05.012Z,97760.41
2022-09-30T19:30:31.981Z,97801.13
2022-09-30T19:33:02.107Z,97739.50
2022-09-30T19:35:37.886Z,97804.19
2022-09-30T19:38:07.781Z,97823.06
2022-09-30T19:40:34.421Z,97779.50
2022-09-30T19:43:01.214Z,97788.03
2022-09-30T19:45:28.080Z,97711.56
2022-09-30T19:47:55.091Z,97802.47
2022-09-30T19:50:23.347Z,97760.94
2022-09-30T19:52:56.723Z,97825.75
2022-09-30T19:55:29.441Z,97808.25
2022-09-30T19:57:57.091Z,97765.06
2022-09-30T20:00:23.786Z,97804.44
2022-09-30T20:02:50.772Z,97589.53
2022-09-30T20:05:17.413Z,97835.44
2022-09-30T20:07:47.399Z,97763.34
2022-09-30T20:10:15.372Z,97830.09
2022-09-30T20:12:43.612Z,97772.22
2022-09-30T20:15:21.605Z,97831.69
2022-09-30T20:17:48.702Z,97794.25
2022-09-30T20:20:15.538Z,97820.06
2022-09-30T20:22:42.777Z,97825.44
2022-09-30T20:25:10.403Z,97757.66
2022-09-30T20:27:37.085Z,97753.34
2022-09-30T20:30:04.258Z,97824.72
2022-09-30T20:32:31.268Z,97797.22
2022-09-30T20:34:58.069Z,97795.13
2022-09-30T20:37:25.152Z,97832.59
2022-09-30T20:39:51.795Z,97811.00
2022-09-30T20:42:18.542Z,97766.53
2022-09-30T20:44:45.204Z,97803.91
2022-09-30T20:47:12.038Z,97807.53
2022-09-30T20:49:38.700Z,97835.78
2022-09-30T20:52:06.213Z,97779.59
2022-09-30T20:54:32.938Z,97730.91
2022-09-30T20:57:07.268Z,97831.31
2022-09-30T20:59:34.985Z,97801.50
2022-09-30T21:02:01.741Z,97822.47
2022-09-30T21:04:28.892Z,97744.78
2022-09-30T21:06:56.058Z,97701.25
2022-09-30T21:09:23.302Z,97807.66
2022-09-30T21:11:50.089Z,97817.34
2022-09-30T21:14:17.371Z,97676.16
2022-09-30T21:16:44.176Z,97822.50
2022-09-30T21:19:11.039Z,97759.03
2022-09-30T21:21:37.985Z,97816.16
2022-09-30T21:24:09.617Z,97840.91
2022-09-30T21:26:37.166Z,97858.44
2022-09-30T21:29:04.078Z,97802.94
2022-09-30T21:31:32.690Z,97835.72
2022-09-30T21:34:03.270Z,97787.81
2022-09-30T21:36:34.642Z,97814.56
2022-09-30T21:39:02.071Z,97812.75
2022-09-30T21:41:31.898Z,97837.44
2022-09-30T21:44:00.725Z,97812.16
2022-09-30T21:46:27.912Z,97714.63
2022-09-30T21:49:16.911Z,97842.56
2022-09-30T21:51:43.751Z,97781.78
2022-09-30T21:54:11.084Z,97804.81
2022-09-30T21:56:39.978Z,97761.88
2022-09-30T21:59:07.060Z,97799.34
2022-09-30T22:01:34.105Z,97533.09
2022-09-30T22:04:01.155Z,97797.63
2022-09-30T22:06:29.977Z,97639.38
2022-09-30T22:08:57.699Z,97816.88
2022-09-30T22:11:24.588Z,97837.69
2022-09-30T22:13:56.473Z,97771.53
2022-09-30T22:16:28.922Z,97790.84
2022-09-30T22:18:57.112Z,97825.16
2022-09-30T22:21:23.764Z,97714.06
2022-09-30T22:23:50.535Z,97726.19
2022-09-30T22:26:19.771Z,97788.00
2022-09-30T22:28:49.484Z,97812.16
2022-09-30T22:31:25.600Z,97750.59
2022-09-30T22:34:00.505Z,97712.41
2022-09-30T22:36:28.943Z,97805.94
2022-09-30T22:38:55.921Z,97712.09
2022-09-30T22:41:22.684Z,97776.06
2022-09-30T22:43:49.507Z,97733.41
2022-09-30T22:46:16.235Z,97744.72
2022-09-30T22:48:42.932Z,97746.63
2022-09-30T22:51:15.124Z,97689.69
2022-09-30T22:53:42.043Z,97688.25
2022-09-30T22:56:08.757Z,97660.16
2022-09-30T22:58:35.592Z,97698.97
2022-09-30T23:01:02.857Z,97789.06
2022-09-30T23:03:29.531Z,97695.91
2022-09-30T23:06:00.843Z,97761.81
2022-09-30T23:08:31.661Z,97785.47
2022-09-30T23:10:58.348Z,97665.91
2022-09-30T23:13:31.549Z,97493.56
2022-09-30T23:15:58.594Z,97676.66
2022-09-30T23:18:29.520Z,97718.78
2022-09-30T23:21:17.339Z,97777.84
2022-09-30T23:23:45.861Z,97780.34
2022-09-30T23:26:15.534Z,97466.00
2022-09-30T23:28:42.701Z,97773.69
2022-09-30T23:31:16.386Z,97773.34
2022-09-30T23:33:51.595Z,97778.59
2022-09-30T23:36:21.160Z,97683.84
2022-09-30T23:38:47.995Z,97723.19
2022-09-30T23:41:15.517Z,97790.91
2022-09-30T23:43:42.219Z,97725.31
2022-09-30T23:46:09.317Z,97772.06
2022-09-30T23:48:36.795Z,97705.38
2022-09-30T23:51:04.091Z,97772.84
2022-09-30T23:53:32.035Z,97767.47
2022-09-30T23:56:00.684Z,97766.13
2022-09-30T23:58:29.857Z,97765.75
